createdAt,value
2018-08-06T00:01:27.776Z,2.00
2018-08-06T00:03:57.226Z,1.77
2018-08-06T00:06:27.727Z,2.00
2018-08-06T00:08:57.695Z,1.50
2018-08-06T00:11:27.310Z,1.37
2018-08-06T00:13:56.878Z,1.13
2018-08-06T00:16:26.517Z,0.93
2018-08-06T00:18:55.830Z,1.17
2018-08-06T00:21:26.008Z,1.10
2018-08-06T00:23:55.591Z,1.23
2018-08-06T00:26:25.358Z,1.03
2018-08-06T00:28:54.981Z,1.20
2018-08-06T00:31:24.636Z,1.10
2018-08-06T00:33:54.070Z,0.97
2018-08-06T00:36:23.468Z,1.03
2018-08-06T00:38:53.051Z,0.90
2018-08-06T00:41:22.607Z,1.03
2018-08-06T00:43:52.730Z,1.13
2018-08-06T00:46:22.442Z,1.00
2018-08-06T00:48:51.966Z,0.90
2018-08-06T00:51:21.618Z,1.10
2018-08-06T00:53:51.256Z,1.00
2018-08-06T00:56:20.740Z,0.70
2018-08-06T00:58:50.027Z,0.80
2018-08-06T01:01:19.784Z,1.00
2018-08-06T01:03:49.209Z,1.17
2018-08-06T01:06:18.513Z,1.07
2018-08-06T01:08:48.217Z,1.23
2018-08-06T01:11:17.973Z,1.07
2018-08-06T01:13:47.403Z,1.30
2018-08-06T01:16:17.082Z,1.00
2018-08-06T01:18:46.517Z,1.07
2018-08-06T01:21:15.933Z,1.00
2018-08-06T01:23:45.462Z,1.00
2018-08-06T01:26:14.814Z,1.17
2018-08-06T01:28:44.113Z,1.30
2018-08-06T01:31:13.786Z,1.27
2018-08-06T01:33:43.111Z,1.40
2018-08-06T01:36:12.637Z,1.20
2018-08-06T01:38:42.523Z,0.90
2018-08-06T01:41:12.006Z,1.00
2018-08-06T01:43:41.746Z,1.30
2018-08-06T01:46:11.330Z,1.20
2018-08-06T01:48:43.917Z,1.03
2018-08-06T01:51:13.541Z,1.10
2018-08-06T01:53:42.945Z,1.10
2018-08-06T01:56:12.283Z,1.20
2018-08-06T01:58:42.089Z,1.30
2018-08-06T02:01:11.457Z,1.50
2018-08-06T02:03:40.821Z,1.10
2018-08-06T02:06:10.437Z,1.20
2018-08-06T02:08:39.841Z,1.07
2018-08-06T02:11:09.277Z,0.90
2018-08-06T02:13:39.172Z,1.00
2018-08-06T02:16:08.632Z,1.00
2018-08-06T02:18:38.109Z,1.10
2018-08-06T02:21:14.233Z,1.20
2018-08-06T02:23:43.754Z,1.33
2018-08-06T02:26:13.350Z,1.00
2018-08-06T02:28:42.987Z,0.90
2018-08-06T02:31:12.516Z,1.03
2018-08-06T02:33:41.933Z,0.93
2018-08-06T02:36:11.629Z,1.37
2018-08-06T02:38:41.182Z,1.10
2018-08-06T02:41:10.605Z,1.10
2018-08-06T02:43:40.333Z,1.20
2018-08-06T02:46:09.914Z,1.30
2018-08-06T02:48:39.314Z,1.10
2018-08-06T02:51:08.837Z,0.90
2018-08-06T02:53:38.305Z,0.90
2018-08-06T02:56:08.459Z,1.30
2018-08-06T02:58:37.812Z,1.30
2018-08-06T03:01:07.317Z,1.27
2018-08-06T03:03:36.713Z,1.10
2018-08-06T03:06:07.045Z,1.13
2018-08-06T03:08:36.730Z,1.20
2018-08-06T03:11:06.297Z,1.27
2018-08-06T03:13:36.056Z,1.20
2018-08-06T03:16:05.929Z,1.20
2018-08-06T03:18:35.360Z,1.20
2018-08-06T03:21:05.505Z,1.37
2018-08-06T03:23:35.010Z,1.40
2018-08-06T03:26:04.564Z,1.53
2018-08-06T03:28:34.204Z,1.43
2018-08-06T03:31:03.284Z,1.60
2018-08-06T03:33:32.851Z,1.53
2018-08-06T03:36:02.436Z,1.60
2018-08-06T03:38:31.861Z,1.40
2018-08-06T03:41:01.241Z,1.63
2018-08-06T03:43:30.754Z,1.60
2018-08-06T03:46:00.161Z,1.10
2018-08-06T03:48:29.693Z,1.20
2018-08-06T03:50:59.104Z,1.40
2018-08-06T03:53:28.492Z,1.60
2018-08-06T03:55:57.919Z,1.13
2018-08-06T03:58:27.595Z,1.50
2018-08-06T04:00:56.895Z,1.20
2018-08-06T04:03:26.483Z,1.30
2018-08-06T04:05:56.032Z,1.73
2018-08-06T04:08:25.435Z,1.27
2018-08-06T04:10:54.784Z,1.20
2018-08-06T04:13:24.463Z,1.10
2018-08-06T04:15:53.840Z,1.10
2018-08-06T04:18:23.428Z,1.47
2018-08-06T04:20:53.228Z,1.60
2018-08-06T04:23:22.563Z,1.00
2018-08-06T04:25:51.931Z,1.30
2018-08-06T04:28:21.464Z,1.30
2018-08-06T04:30:50.944Z,1.37
2018-08-06T04:33:20.348Z,1.20
2018-08-06T04:35:49.988Z,1.30
2018-08-06T04:38:19.557Z,1.13
2018-08-06T04:40:48.931Z,1.13
2018-08-06T04:43:18.608Z,1.30
2018-08-06T04:45:47.980Z,1.50
2018-08-06T04:48:17.396Z,1.10
2018-08-06T04:50:46.900Z,1.10
2018-08-06T04:53:16.277Z,1.77
2018-08-06T04:55:45.817Z,1.30
2018-08-06T04:58:15.648Z,1.47
2018-08-06T05:00:45.337Z,1.30
2018-08-06T05:03:15.013Z,1.93
2018-08-06T05:05:44.553Z,1.60
2018-08-06T05:08:15.302Z,1.87
2018-08-06T05:10:44.664Z,1.77
2018-08-06T05:13:14.538Z,1.90
2018-08-06T05:15:43.815Z,1.30
2018-08-06T05:18:12.809Z,1.27
2018-08-06T05:20:42.567Z,1.70
2018-08-06T05:23:11.575Z,1.10
2018-08-06T05:25:41.083Z,2.10
2018-08-06T05:28:10.905Z,1.50
2018-08-06T05:30:40.248Z,1.60
2018-08-06T05:33:09.686Z,2.20
2018-08-06T05:35:39.398Z,1.30
2018-08-06T05:38:08.775Z,1.60
2018-08-06T05:40:38.148Z,1.60
2018-08-06T05:43:08.133Z,1.30
2018-08-06T05:45:37.585Z,2.10
2018-08-06T05:48:07.111Z,1.30
2018-08-06T05:50:36.803Z,1.20
2018-08-06T05:53:06.154Z,1.60
2018-08-06T05:55:35.662Z,1.20
2018-08-06T05:58:05.586Z,1.20
2018-08-06T06:00:34.989Z,1.20
2018-08-06T06:03:04.801Z,1.30
2018-08-06T06:05:34.414Z,1.07
2018-08-06T06:08:03.713Z,1.10
2018-08-06T06:10:33.608Z,1.10
2018-08-06T06:13:03.349Z,1.20
2018-08-06T06:15:32.686Z,1.20
2018-08-06T06:18:32.811Z,1.20
2018-08-06T06:21:04.671Z,1.23
2018-08-06T06:23:42.647Z,0.90
2018-08-06T06:26:12.263Z,1.10
2018-08-06T06:28:41.910Z,1.10
2018-08-06T06:31:11.621Z,1.10
2018-08-06T06:33:41.269Z,1.07
2018-08-06T06:36:10.645Z,1.50
2018-08-06T06:38:40.484Z,1.10
2018-08-06T06:41:09.956Z,1.07
2018-08-06T06:43:39.427Z,1.20
2018-08-06T06:46:08.936Z,1.23
2018-08-06T06:48:38.377Z,1.40
2018-08-06T06:51:07.823Z,0.97
2018-08-06T06:53:37.171Z,0.90
2018-08-06T06:56:07.334Z,1.10
2018-08-06T06:58:36.769Z,1.00
2018-08-06T07:01:06.408Z,1.30
2018-08-06T07:03:35.958Z,1.00
2018-08-06T07:06:05.208Z,1.23
2018-08-06T07:08:34.455Z,1.60
2018-08-06T07:11:03.890Z,1.07
2018-08-06T07:13:33.298Z,1.40
2018-08-06T07:16:03.103Z,1.20
2018-08-06T07:18:32.600Z,2.00
2018-08-06T07:21:01.951Z,1.30
2018-08-06T07:23:31.790Z,1.17
2018-08-06T07:26:01.127Z,1.30
2018-08-06T07:28:30.928Z,1.13
2018-08-06T07:31:00.790Z,1.40
2018-08-06T07:33:30.295Z,1.00
2018-08-06T07:35:59.752Z,1.10
2018-08-06T07:38:29.410Z,0.80
2018-08-06T07:40:59.023Z,1.37
2018-08-06T07:43:28.813Z,0.93
2018-08-06T07:45:58.591Z,1.20
2018-08-06T07:48:28.513Z,1.20
2018-08-06T07:50:57.761Z,1.13
2018-08-06T07:53:28.573Z,1.03
2018-08-06T07:55:58.054Z,1.00
2018-08-06T07:58:27.576Z,1.23
2018-08-06T08:00:57.326Z,1.03
2018-08-06T08:03:26.762Z,1.17
2018-08-06T08:05:56.017Z,0.83
2018-08-06T08:08:25.977Z,1.27
2018-08-06T08:10:55.443Z,1.10
2018-08-06T08:13:24.821Z,1.20
2018-08-06T08:15:54.717Z,1.00
2018-08-06T08:18:24.120Z,1.10
2018-08-06T08:20:53.660Z,1.10
2018-08-06T08:23:23.350Z,1.20
2018-08-06T08:25:52.899Z,1.30
2018-08-06T08:28:22.630Z,1.37
2018-08-06T08:30:52.438Z,1.30
2018-08-06T08:33:22.149Z,1.00
2018-08-06T08:35:51.651Z,1.67
2018-08-06T08:38:21.317Z,1.03
2018-08-06T08:40:50.780Z,1.00
2018-08-06T08:43:20.229Z,1.20
2018-08-06T08:45:50.116Z,1.47
2018-08-06T08:48:19.583Z,1.10
2018-08-06T08:50:49.124Z,1.27
2018-08-06T08:53:18.855Z,1.50
2018-08-06T08:55:48.219Z,1.33
2018-08-06T08:58:17.985Z,1.30
2018-08-06T09:00:48.275Z,1.10
2018-08-06T09:03:17.865Z,1.10
2018-08-06T09:05:47.264Z,1.30
2018-08-06T09:08:17.056Z,1.20
2018-08-06T09:10:46.401Z,1.20
2018-08-06T09:13:15.778Z,1.90
2018-08-06T09:15:45.332Z,1.40
2018-08-06T09:18:14.870Z,15.83
2018-08-06T09:20:44.309Z,1.20
2018-08-06T09:23:13.722Z,1.10
2018-08-06T09:25:43.204Z,0.93
2018-08-06T09:28:12.631Z,1.00
2018-08-06T09:30:42.114Z,1.30
2018-08-06T09:33:11.671Z,1.03
2018-08-06T09:35:41.301Z,1.00
2018-08-06T09:38:11.071Z,1.10
2018-08-06T09:40:40.422Z,0.80
2018-08-06T09:43:09.754Z,0.90
2018-08-06T09:45:39.237Z,1.67
2018-08-06T09:48:08.828Z,1.60
2018-08-06T09:50:38.458Z,1.30
2018-08-06T09:53:08.100Z,1.10
2018-08-06T09:55:37.623Z,1.27
2018-08-06T09:58:07.056Z,1.30
2018-08-06T10:00:45.682Z,1.30
2018-08-06T10:03:15.128Z,1.17
2018-08-06T10:05:44.736Z,1.17
2018-08-06T10:08:14.133Z,1.30
2018-08-06T10:10:43.711Z,1.30
2018-08-06T10:13:13.338Z,1.20
2018-08-06T10:15:42.870Z,1.77
2018-08-06T10:18:12.352Z,1.13
2018-08-06T10:20:41.822Z,1.27
2018-08-06T10:23:11.318Z,1.10
2018-08-06T10:25:40.737Z,1.37
2018-08-06T10:28:10.450Z,1.10
2018-08-06T10:30:39.981Z,1.10
2018-08-06T10:33:11.231Z,1.30
2018-08-06T10:35:41.233Z,1.10
2018-08-06T10:38:10.904Z,1.20
2018-08-06T10:40:40.383Z,1.27
2018-08-06T10:43:10.081Z,1.30
2018-08-06T10:45:39.425Z,1.60
2018-08-06T10:48:08.996Z,1.27
2018-08-06T10:50:38.697Z,1.27
2018-08-06T10:53:08.388Z,1.40
2018-08-06T10:55:37.765Z,1.60
2018-08-06T10:58:07.437Z,1.33
2018-08-06T11:00:36.879Z,1.10
2018-08-06T11:03:06.355Z,1.30
2018-08-06T11:05:35.949Z,1.00
2018-08-06T11:08:05.537Z,1.43
2018-08-06T11:10:34.976Z,0.90
2018-08-06T11:13:04.742Z,1.27
2018-08-06T11:15:34.212Z,1.30
2018-08-06T11:18:03.616Z,1.10
2018-08-06T11:20:33.359Z,1.23
2018-08-06T11:23:02.987Z,1.40
2018-08-06T11:25:32.436Z,1.20
2018-08-06T11:28:02.115Z,1.10
2018-08-06T11:31:34.608Z,1.07
2018-08-06T11:34:04.488Z,1.07
2018-08-06T11:36:33.879Z,1.10
2018-08-06T11:39:03.557Z,1.30
2018-08-06T11:41:33.362Z,1.67
2018-08-06T11:44:03.114Z,1.40
2018-08-06T11:46:32.351Z,1.57
2018-08-06T11:49:02.108Z,1.40
2018-08-06T11:51:31.171Z,1.30
2018-08-06T11:54:00.564Z,1.30
2018-08-06T11:56:30.243Z,1.40
2018-08-06T11:58:59.813Z,1.40
2018-08-06T12:01:29.281Z,1.20
2018-08-06T12:03:58.810Z,1.60
2018-08-06T12:06:29.273Z,1.47
2018-08-06T12:08:58.763Z,1.43
2018-08-06T12:11:29.919Z,1.43
2018-08-06T12:13:59.275Z,1.10
2018-08-06T12:16:28.700Z,1.07
2018-08-06T12:18:58.432Z,1.33
2018-08-06T12:21:27.791Z,1.20
2018-08-06T12:23:57.393Z,1.57
2018-08-06T12:26:27.386Z,1.23
2018-08-06T12:28:56.830Z,1.13
2018-08-06T12:31:26.460Z,1.40
2018-08-06T12:33:56.910Z,1.13
2018-08-06T12:36:26.448Z,1.30
2018-08-06T12:39:18.128Z,1.10
2018-08-06T12:41:48.012Z,1.13
2018-08-06T12:44:17.596Z,6.03
2018-08-06T12:46:47.128Z,1.20
2018-08-06T12:49:16.524Z,1.30
2018-08-06T12:51:46.028Z,1.13
2018-08-06T12:54:15.730Z,1.17
2018-08-06T12:56:45.302Z,1.50
2018-08-06T12:59:14.817Z,1.47
2018-08-06T13:01:44.416Z,1.40
2018-08-06T13:04:13.872Z,1.47
2018-08-06T13:06:43.319Z,1.40
2018-08-06T13:09:13.152Z,1.40
2018-08-06T13:11:42.719Z,1.43
2018-08-06T13:14:12.411Z,1.60
2018-08-06T13:16:41.992Z,1.50
2018-08-06T13:19:11.426Z,1.50
2018-08-06T13:21:40.713Z,1.90
2018-08-06T13:24:10.512Z,2.00
2018-08-06T13:26:39.737Z,1.77
2018-08-06T13:29:09.610Z,1.80
2018-08-06T13:31:39.438Z,1.60
2018-08-06T13:34:08.879Z,1.70
2018-08-06T13:36:38.170Z,2.13
2018-08-06T13:39:09.729Z,2.00
2018-08-06T13:41:38.745Z,1.80
2018-08-06T13:44:08.311Z,1.90
2018-08-06T13:46:37.999Z,1.90
2018-08-06T13:49:07.454Z,2.30
2018-08-06T13:51:36.823Z,1.90
2018-08-06T13:54:06.397Z,1.73
2018-08-06T13:56:35.747Z,1.77
2018-08-06T13:59:05.239Z,2.20
2018-08-06T14:01:35.074Z,2.10
2018-08-06T14:04:05.700Z,1.90
2018-08-06T14:06:34.834Z,2.27
2018-08-06T14:09:05.314Z,1.90
2018-08-06T14:11:34.639Z,1.97
2018-08-06T14:14:11.143Z,2.10
2018-08-06T14:16:40.810Z,1.73
2018-08-06T14:19:10.148Z,1.70
2018-08-06T14:21:39.775Z,1.80
2018-08-06T14:24:09.574Z,1.70
2018-08-06T14:26:38.979Z,2.30
2018-08-06T14:29:08.732Z,2.10
2018-08-06T14:31:38.352Z,1.90
2018-08-06T14:34:07.935Z,2.00
2018-08-06T14:36:37.706Z,2.00
2018-08-06T14:39:10.236Z,1.83
2018-08-06T14:41:40.235Z,1.80
2018-08-06T14:44:10.183Z,2.60
2018-08-06T14:46:40.348Z,1.97
2018-08-06T14:49:09.865Z,2.30
2018-08-06T14:51:39.466Z,3.00
2018-08-06T14:54:08.575Z,2.40
2018-08-06T14:56:38.332Z,2.00
2018-08-06T14:59:07.724Z,2.20
2018-08-06T15:01:37.355Z,1.80
2018-08-06T15:04:06.857Z,1.87
2018-08-06T15:06:36.301Z,1.90
2018-08-06T15:09:08.849Z,2.00
2018-08-06T15:11:38.446Z,2.70
2018-08-06T15:14:08.219Z,2.77
2018-08-06T15:16:37.944Z,2.40
2018-08-06T15:19:07.671Z,3.00
2018-08-06T15:21:36.908Z,2.40
2018-08-06T15:24:07.546Z,2.67
2018-08-06T15:26:36.906Z,2.97
2018-08-06T15:29:06.400Z,2.70
2018-08-06T15:31:35.994Z,2.80
2018-08-06T15:34:05.637Z,2.70
2018-08-06T15:36:35.164Z,2.87
2018-08-06T15:39:05.805Z,3.00
2018-08-06T15:41:35.220Z,2.67
2018-08-06T15:44:04.746Z,5.53
2018-08-06T15:46:34.239Z,4.27
2018-08-06T15:49:03.799Z,2.50
2018-08-06T15:51:33.272Z,2.67
2018-08-06T15:54:02.861Z,2.90
2018-08-06T15:56:32.329Z,2.80
2018-08-06T15:59:08.201Z,2.60
2018-08-06T16:01:37.664Z,2.90
2018-08-06T16:04:07.749Z,2.60
2018-08-06T16:06:37.164Z,3.23
2018-08-06T16:09:08.684Z,2.70
2018-08-06T16:11:38.498Z,2.70
2018-08-06T16:14:07.666Z,2.83
2018-08-06T16:16:36.915Z,2.83
2018-08-06T16:19:06.971Z,2.93
2018-08-06T16:21:36.143Z,2.90
2018-08-06T16:24:05.518Z,3.33
2018-08-06T16:26:34.833Z,3.20
2018-08-06T16:29:05.584Z,2.97
2018-08-06T16:31:34.933Z,3.23
2018-08-06T16:34:04.151Z,3.60
2018-08-06T16:36:33.522Z,3.43
2018-08-06T16:39:02.831Z,8.47
2018-08-06T16:41:32.088Z,3.10
2018-08-06T16:44:01.341Z,3.30
2018-08-06T16:46:30.526Z,2.77
2018-08-06T16:49:00.485Z,3.10
2018-08-06T16:51:29.935Z,2.93
2018-08-06T16:53:59.160Z,2.70
2018-08-06T16:56:28.487Z,3.00
2018-08-06T16:58:57.830Z,4.00
2018-08-06T17:01:28.119Z,3.97
2018-08-06T17:03:57.518Z,3.30
2018-08-06T17:06:26.733Z,3.20
2018-08-06T17:08:55.969Z,3.33
2018-08-06T17:11:25.594Z,3.30
2018-08-06T17:13:54.692Z,3.47
2018-08-06T17:16:23.977Z,3.40
2018-08-06T17:18:53.400Z,3.10
2018-08-06T17:21:22.506Z,2.90
2018-08-06T17:23:51.763Z,2.93
2018-08-06T17:26:21.206Z,2.97
2018-08-06T17:28:50.450Z,2.73
2018-08-06T17:31:19.601Z,2.67
2018-08-06T17:33:49.380Z,3.67
2018-08-06T17:36:18.911Z,3.10
2018-08-06T17:38:48.495Z,3.00
2018-08-06T17:41:18.836Z,2.97
2018-08-06T17:43:48.126Z,3.53
2018-08-06T17:46:17.415Z,2.87
2018-08-06T17:48:47.018Z,3.50
2018-08-06T17:51:16.476Z,3.33
2018-08-06T17:53:45.905Z,3.10
2018-08-06T17:56:15.424Z,3.63
2018-08-06T17:58:44.637Z,3.60
2018-08-06T18:01:13.992Z,3.57
2018-08-06T18:03:43.426Z,4.03
2018-08-06T18:06:12.628Z,3.20
2018-08-06T18:08:41.864Z,3.20
2018-08-06T18:11:11.483Z,3.33
2018-08-06T18:13:40.641Z,3.17
2018-08-06T18:16:09.958Z,3.43
2018-08-06T18:18:39.638Z,2.87
2018-08-06T18:21:09.085Z,3.20
2018-08-06T18:23:38.465Z,3.40
2018-08-06T18:26:08.202Z,3.30
2018-08-06T18:28:37.276Z,2.90
2018-08-06T18:31:06.494Z,3.27
2018-08-06T18:33:35.739Z,3.10
2018-08-06T18:36:06.081Z,2.83
2018-08-06T18:38:35.453Z,3.40
2018-08-06T18:41:05.672Z,3.60
2018-08-06T18:43:34.788Z,3.23
2018-08-06T18:46:04.064Z,3.30
2018-08-06T18:48:33.343Z,3.10
2018-08-06T18:51:02.505Z,3.67
2018-08-06T18:53:31.944Z,3.43
2018-08-06T18:56:01.442Z,3.20
2018-08-06T18:58:30.852Z,3.10
2018-08-06T19:01:00.135Z,3.20
2018-08-06T19:03:29.602Z,3.10
2018-08-06T19:05:58.750Z,3.20
2018-08-06T19:08:28.049Z,3.50
2018-08-06T19:10:57.512Z,2.73
2018-08-06T19:13:31.903Z,3.00
2018-08-06T19:16:01.173Z,3.43
2018-08-06T19:18:35.578Z,3.40
2018-08-06T19:21:05.257Z,3.17
2018-08-06T19:23:34.436Z,3.57
2018-08-06T19:26:03.918Z,3.20
2018-08-06T19:28:33.688Z,3.07
2018-08-06T19:31:07.927Z,4.27
2018-08-06T19:33:37.275Z,3.40
2018-08-06T19:36:06.349Z,3.53
2018-08-06T19:38:35.619Z,3.87
2018-08-06T19:41:04.964Z,3.40
2018-08-06T19:43:38.908Z,3.50
2018-08-06T19:46:09.035Z,3.27
2018-08-06T19:48:38.839Z,3.50
2018-08-06T19:51:08.014Z,3.80
2018-08-06T19:53:37.507Z,3.77
2018-08-06T19:56:12.153Z,3.60
2018-08-06T19:58:41.757Z,3.80
2018-08-06T20:01:10.989Z,3.90
2018-08-06T20:03:40.317Z,4.10
2018-08-06T20:06:09.608Z,4.33
2018-08-06T20:08:38.883Z,4.77
2018-08-06T20:11:08.250Z,4.63
2018-08-06T20:13:37.758Z,4.87
2018-08-06T20:16:06.815Z,4.50
2018-08-06T20:18:36.099Z,4.90
2018-08-06T20:21:06.005Z,5.63
2018-08-06T20:23:35.172Z,5.17
2018-08-06T20:26:05.425Z,4.80
2018-08-06T20:28:35.158Z,5.03
2018-08-06T20:31:04.365Z,4.90
2018-08-06T20:33:33.855Z,5.00
2018-08-06T20:36:03.560Z,4.60
2018-08-06T20:38:32.771Z,5.10
2018-08-06T20:41:01.922Z,4.70
2018-08-06T20:43:31.453Z,6.60
2018-08-06T20:46:00.568Z,4.97
2018-08-06T20:48:29.638Z,4.93
2018-08-06T20:50:59.380Z,5.00
2018-08-06T20:53:29.297Z,5.30
2018-08-06T20:55:59.138Z,5.67
2018-08-06T20:58:29.167Z,5.53
2018-08-06T21:00:58.397Z,5.17
2018-08-06T21:03:27.800Z,4.40
2018-08-06T21:05:57.027Z,4.90
2018-08-06T21:08:26.915Z,5.50
2018-08-06T21:10:56.140Z,4.87
2018-08-06T21:13:25.584Z,5.10
2018-08-06T21:15:54.759Z,5.50
2018-08-06T21:18:23.920Z,5.50
2018-08-06T21:20:53.412Z,4.83
2018-08-06T21:23:22.564Z,4.80
2018-08-06T21:25:51.870Z,6.23
2018-08-06T21:28:21.243Z,4.80
2018-08-06T21:30:50.347Z,8.30
2018-08-06T21:33:19.595Z,5.73
2018-08-06T21:35:49.682Z,5.77
2018-08-06T21:38:18.828Z,5.17
2018-08-06T21:40:47.989Z,5.97
2018-08-06T21:43:17.267Z,5.80
2018-08-06T21:45:46.865Z,5.40
2018-08-06T21:48:15.943Z,5.70
2018-08-06T21:50:45.192Z,5.60
2018-08-06T21:53:14.295Z,5.60
2018-08-06T21:55:43.398Z,5.67
2018-08-06T21:58:12.985Z,6.03
2018-08-06T22:00:42.741Z,5.30
2018-08-06T22:03:14.679Z,6.00
2018-08-06T22:05:44.217Z,5.67
2018-08-06T22:08:13.416Z,5.90
2018-08-06T22:10:42.959Z,5.93
2018-08-06T22:13:12.466Z,5.33
2018-08-06T22:15:41.748Z,5.43
2018-08-06T22:18:12.249Z,5.60
2018-08-06T22:20:41.719Z,5.33
2018-08-06T22:23:11.600Z,5.60
2018-08-06T22:25:40.978Z,5.87
2018-08-06T22:28:12.055Z,5.53
2018-08-06T22:30:41.400Z,5.50
2018-08-06T22:33:10.831Z,5.80
2018-08-06T22:35:39.942Z,5.00
2018-08-06T22:38:09.126Z,5.70
2018-08-06T22:40:39.243Z,6.07
2018-08-06T22:43:09.246Z,5.43
2018-08-06T22:45:38.592Z,5.93
2018-08-06T22:48:08.136Z,5.80
2018-08-06T22:50:37.377Z,6.00
2018-08-06T22:53:06.978Z,5.80
2018-08-06T22:55:47.315Z,5.10
2018-08-06T22:58:16.722Z,5.63
2018-08-06T23:00:45.859Z,5.37
2018-08-06T23:03:15.978Z,5.50
2018-08-06T23:05:45.254Z,5.27
2018-08-06T23:08:14.470Z,5.37
2018-08-06T23:10:43.850Z,5.40
2018-08-06T23:13:12.947Z,5.40
2018-08-06T23:15:42.152Z,6.13
2018-08-06T23:18:11.663Z,6.03
2018-08-06T23:20:40.925Z,5.60
2018-08-06T23:23:10.251Z,5.80
2018-08-06T23:25:39.711Z,5.40
2018-08-06T23:28:09.066Z,5.53
2018-08-06T23:30:38.376Z,5.77
2018-08-06T23:33:08.230Z,5.73
2018-08-06T23:35:37.523Z,5.93
2018-08-06T23:38:07.099Z,5.50
2018-08-06T23:40:36.609Z,6.17
2018-08-06T23:43:06.005Z,5.90
2018-08-06T23:45:35.176Z,5.57
2018-08-06T23:48:05.089Z,5.93
2018-08-06T23:50:35.314Z,6.00
2018-08-06T23:53:04.815Z,6.27
2018-08-06T23:55:34.369Z,6.00
2018-08-06T23:58:04.093Z,6.30
